Aviation Digital Data Service (ADDS)

Output produced by METARs form (1844 UTC 19 February 2017)
found at http://aviationweather.gov/adds/metars/
 
KDAG 191750Z AUTO 26013G20KT 10SM BKN038 BKN047 14/06 A2986 RMK AO2 SLP100 T01390061 10144 20072 52028
KDAG 191739Z 1918/2018 24014KT P6SM BKN040 
     FM191900 26018G27KT P6SM BKN040 
     FM200200 25015G22KT P6SM SCT050 BKN250 
     FM200600 25010KT P6SM BKN050 BKN100
       
KEDW 191758Z 23024KT 90SM FEW040 FEW120 11/05 A2984 RMK AO2A PK WND 24031/53 SLP102 T01120051 10112 20063 52017
KVCV 191835Z AUTO 23010KT 10SM CLR 12/05 A2989 RMK AO2
KONT 191753Z COR 23004KT 10SM FEW020 BKN032 BKN065 13/09 A2994 RMK AO2 SLP137 BKN V OVC T01330094 10133 20100 51029 $
KONT 191733Z 1918/2024 VRB06KT P6SM VCSH SCT025 BKN045 
     TEMPO 1918/1921 -RA BKN025 
     FM192300 25008KT P6SM SCT030 BKN040 
     FM200500 VRB06KT P6SM BKN040
       
KSNA 191804Z 19007KT 10SM SCT028 BKN034 OVC044 15/11 A2996 RMK AO2 T01500106
KSNA 191733Z 1918/2018 VRB06KT P6SM VCSH SCT020 BKN035 
     TEMPO 1918/1920 -RA BKN020 
     FM192000 21009KT P6SM SCT025 BKN040 
     FM200200 VRB04KT P6SM BKN050
       
KSAN 191751Z 28009KT 10SM BKN019 BKN030 15/10 A3000 RMK AO2 SLP158 60001 T01500100 10150 20128 51031
KSAN 191733Z 1918/2024 VRB06KT P6SM VCSH SCT025 BKN035 
     TEMPO 1918/1919 -RA BKN025 
     FM191900 25011KT P6SM VCSH SCT025 BKN035 
     TEMPO 1919/1923 BKN025 
     FM200100 VRB06KT P6SM SCT025 BKN040
       
KNID 191756Z AUTO 36004KT 10SM CLR A2983 RMK AO2 SLPNO 51028 $
KNXP 191756Z COR 12007KT 10SM FEW060 12/07 A2994 RMK AO2 SLP120 T01220072 10122 20083 53023
TAF KNXP 1915/2015 28010KT 9999 FEW020 BKN060 QNH2984INS 
     BECMG 2003/2005 VRB06KT 9999 FEW050 SCT150 QNH3002INS AUTOMATED SENSOR METWATCH 1915 TIL 2114 T17/1922Z T09/2014Z
       
KPSP 191807Z VRB05KT 10SM FEW017 BKN025 16/12 A2993 RMK AO2 T01560122
KPSP 191733Z 1918/2018 16005KT 6SM BR SCT006 BKN045 
     FM191900 13006KT P6SM FEW006 BKN050 
     FM192100 12008KT P6SM BKN050 
     FM200100 VRB06KT P6SM BKN050
       
KLAX 191753Z VRB04KT 10SM -RA BKN020 OVC026 13/10 A2996 RMK AO2 RAE02B51 SLP144 P0000 60001 T01330100 10133 20106 53037 $
KLAX 191742Z 1918/2024 09005KT P6SM BKN026 
     FM191900 26009KT P6SM BKN050 
     FM200500 VRB03KT P6SM VCSH BKN050 
     FM200900 10006KT P6SM -RA OVC025 
     FM201400 10008KT 4SM -RA BR OVC015 
     FM202100 14008KT 4SM -RA BR OVC015
       
KCNO 191753Z 26004KT 10SM SCT017 BKN030 BKN060 15/10 A2995 RMK AO2 SLP141 T01500100 10150 20117 51029
KSMO 191751Z 13004KT 10SM OVC022 13/12 A2995 RMK AO2 SLP143 T01280117 10128 20111 51035 $
KSMO 191742Z 1918/2018 07004KT P6SM OVC025 
     FM192100 23009KT P6SM BKN040 
     FM200500 VRB03KT P6SM BKN050 
     FM200800 VRB03KT P6SM VCSH OVC025 
     FM201200 09006KT 5SM -RA OVC010
       
KLGB 191753Z 20006KT 10SM BKN027 OVC036 15/09 A2996 RMK AO2 PRESRR SLP145 T01500089 10156 20094 51034
KLGB 191742Z 1918/2018 17004KT P6SM OVC022 
     FM200500 VRB03KT P6SM VCSH BKN050 
     FM200900 VRB03KT P6SM -RA OVC025 
     FM201400 10008KT 4SM -RA BR OVC015
       
KVNY 191837Z 14007KT 9SM SCT008 BKN014 OVC030 12/11 A2996 RMK AO2 T01220111
KVNY 191742Z 1918/2018 00000KT P6SM BKN010 OVC017 
     FM191900 17008KT P6SM BKN035 
     FM200500 VRB03KT P6SM VCSH BKN050 
     FM200900 VRB03KT P6SM -RA OVC025 
     FM201400 10006KT 4SM -RA BR OVC010
       
KBUR 191804Z 13010KT 10SM -RA BKN007 BKN020 OVC025 12/10 A2995 RMK AO2 CIG 007V012 P0000 T01170100
KBUR 191742Z 1918/2018 00000KT P6SM BKN011 OVC019 
     FM191900 17008KT P6SM BKN035 
     FM200500 VRB03KT P6SM VCSH BKN050 
     FM200900 VRB03KT P6SM -RA OVC025 
     FM201400 10006KT 4SM -RA BR OVC010
       
KBFL 191754Z 00000KT 10SM OVC039 12/06 A2996 RMK AO2 SLP144 T01220056 10122 20100 53019
KBFL 191730Z 1918/2018 30006KT P6SM BKN050 
     FM200400 05007KT P6SM OVC050 
     FM200800 10011KT P6SM -RA OVC050 
     FM201200 06012KT P6SM OVC050
       
KPMD 191753Z AUTO 23013G21KT 10SM CLR 12/07 A2988 RMK AO2 SLP112 T01220067 10122 20072 53022
KPMD 191742Z 1918/2018 11003KT P6SM SKC 
     FM192000 25015G22KT P6SM SCT150 
     FM200600 VRB03KT P6SM VCSH BKN050 
     FM201100 VRB03KT P6SM -RA OVC050
       
KOXR 191751Z VRB06KT 6SM HZ BKN019 15/11 A2994 RMK AO2 SLP137 T01500106 10150 20089 53026 $
KOXR 191742Z 1918/2018 00000KT 6SM BR OVC028 
     FM191900 26010KT P6SM BKN050 
     FM200400 VRB03KT P6SM VCSH BKN050 
     FM201000 08008KT P6SM -RA OVC010
       
KWJF 191756Z 25014KT 10SM CLR 12/07 A2990 RMK AO2 SLP124 T01170072 10117 20072 52025
KWJF 191742Z 1918/2018 22011KT P6SM SKC 
     FM192000 25015G22KT P6SM SCT150 
     FM200600 VRB03KT P6SM VCSH BKN050 
     FM201100 VRB03KT P6SM -RA OVC050
       
KCMA 191755Z 00000KT 10SM CLR 14/11 A2994 RMK AO2 SLP146 T01440106 10144 20089 53025
KCMA 191742Z 1918/2018 30003KT P6SM OVC030 
     FM191900 24008KT P6SM BKN050 
     FM200400 VRB03KT P6SM VCSH BKN050 
     FM201000 08008KT P6SM -RA OVC010
       
KFAT 191753Z 00000KT 10SM FEW060 SCT090 SCT130 12/04 A2995 RMK AO2 SLP139 MTNS OBSCD DSNT N-NE-SE T01170044 10117 20089 51021
KFAT 191730Z 1918/2018 VRB05KT P6SM BKN050 
     FM192000 14009KT P6SM OVC050 
     FM200200 14012KT P6SM -RA OVC050 
     FM201300 11015G21KT P6SM -SHRA OVC040
       
KEED 191825Z AUTO 14004KT 10SM FEW018 SCT026 OVC033 15/11 A2990 RMK AO2 T01500106
KEED 191739Z 1918/2018 12008KT P6SM BKN015 OVC020 
     FM192000 18008KT P6SM BKN040 
     FM200500 24006KT P6SM SCT050 BKN250
       
KLSV 191802Z AUTO 13008KT 10SM BKN033 13/08 A2983 RMK AO2
TAF KLSV 191504Z 1915/2021 11009KT 9999 BKN050 QNH2970INS 
     BECMG 1917/1918 03009KT 9999 SCT050 QNH2975INS 
     BECMG 2002/2003 VRB06KT 9999 FEW150 QNH2993INS 
     BECMG 2009/2010 VRB06KT 8000 BR SCT080 QNH3007INS 
     BECMG 2017/2018 03009KT 9999 NSW FEW050 QNH3012INS TX17/1923Z TN10/1915Z
       
KLAS 191756Z 20010KT 10SM FEW010 SCT037 BKN065 14/06 A2981 RMK AO2 SLP087 60000 T01390056 10144 20094 53020
KLAS 191739Z 1918/2018 19010G18KT P6SM FEW030 SCT060 
     FM192100 19014G21KT P6SM BKN060 
     FM200200 20010KT P6SM SCT060 BKN250 
     FM201000 21007KT P6SM SCT050 BKN150 
     FM201600 16006KT P6SM BKN050 BKN150
       
KHII 191835Z AUTO 13011KT 10SM SCT020 OVC032 14/10 A2990 RMK AO2
KIFP 191835Z AUTO 18011KT 10SM FEW021 BKN036 OVC090 15/11 A2989 RMK AO2
KIFP 191739Z 1918/2018 19009KT P6SM OVC025 
     FM192300 19008KT P6SM BKN040 
     FM200200 VRB06KT P6SM BKN050